Time;durP1;ratioP1;P1;durP2;ratioP2;P2;SDS_P1;SDS_P2;PMS_P1;PMS_P2;Temp;Humidity;BMP_temperature;BMP_pressure;BME280_temperature;BME280_humidity;BME280_pressure;Samples;Min_cycle;Max_cycle;Signal;HPM_P1;HPM_P2
2024/03/19 00:00:20;;;;;;;12.65;7.50;;;;;;;;;;7398103;19;21598;-79
2024/03/19 00:03:05;;;;;;;15.82;6.85;;;;;;;;;;7408697;19;19922;-80
2024/03/19 00:05:52;;;;;;;10.73;6.13;;;;;;;;;;7407357;19;19971;-80
2024/03/19 00:08:39;;;;;;;10.65;6.40;;;;;;;;;;7411925;19;20254;-80
2024/03/19 00:11:23;;;;;;;11.20;6.03;;;;;;;;;;7413095;19;19919;-80
2024/03/19 00:14:10;;;;;;;12.43;6.07;;;;;;;;;;7416102;19;19910;-80
2024/03/19 00:16:56;;;;;;;11.23;6.57;;;;;;;;;;7423017;19;19911;-79
2024/03/19 00:19:42;;;;;;;12.13;6.90;;;;;;;;;;7424633;19;19914;-79
2024/03/19 00:22:29;;;;;;;9.07;5.78;;;;;;;;;;7428193;19;20233;-79
2024/03/19 00:25:17;;;;;;;11.68;6.10;;;;;;;;;;7428137;19;19929;-79
2024/03/19 00:28:01;;;;;;;10.85;6.25;;;;;;;;;;7427530;19;19911;-79
2024/03/19 00:30:45;;;;;;;12.27;6.50;;;;;;;;;;7425270;19;19933;-79
2024/03/19 00:33:32;;;;;;;9.43;5.47;;;;;;;;;;7414630;19;20341;-79
2024/03/19 00:36:21;;;;;;;13.90;6.72;;;;;;;;;;7414387;19;19906;-80
2024/03/19 00:39:10;;;;;;;12.70;6.88;;;;;;;;;;7417994;19;19930;-80
2024/03/19 00:41:59;;;;;;;16.65;6.03;;;;;;;;;;7417833;19;19927;-80
2024/03/19 00:44:45;;;;;;;11.90;6.47;;;;;;;;;;7417869;19;19935;-80
2024/03/19 00:47:30;;;;;;;12.43;6.60;;;;;;;;;;7411699;19;19942;-80
2024/03/19 00:50:17;;;;;;;13.65;6.50;;;;;;;;;;7416076;19;19925;-80
2024/03/19 00:53:06;;;;;;;9.65;5.78;;;;;;;;;;7417381;19;19922;-80
2024/03/19 00:55:50;;;;;;;11.10;6.40;;;;;;;;;;7418183;19;20330;-80
2024/03/19 00:58:39;;;;;;;11.95;6.45;;;;;;;;;;7407456;19;19918;-81
2024/03/19 01:01:26;;;;;;;10.80;6.05;;;;;;;;;;7409835;19;20324;-80
2024/03/19 01:04:10;;;;;;;10.73;5.78;;;;;;;;;;7410081;19;19911;-80
2024/03/19 01:06:54;;;;;;;14.45;6.22;;;;;;;;;;7407219;19;19923;-80
2024/03/19 01:09:39;;;;;;;14.90;6.03;;;;;;;;;;7409691;19;19918;-80
2024/03/19 01:12:25;;;;;;;9.90;5.00;;;;;;;;;;7414548;19;20330;-80
2024/03/19 01:15:13;;;;;;;9.95;4.93;;;;;;;;;;7410082;19;20386;-79
2024/03/19 01:17:57;;;;;;;14.18;5.40;;;;;;;;;;7405436;19;19927;-79
2024/03/19 01:20:44;;;;;;;9.85;5.25;;;;;;;;;;7407659;19;20418;-79
2024/03/19 01:23:31;;;;;;;10.25;5.25;;;;;;;;;;7412396;19;20427;-79
2024/03/19 01:26:18;;;;;;;10.07;5.30;;;;;;;;;;7408035;19;19999;-79
2024/03/19 01:29:02;;;;;;;11.75;5.82;;;;;;;;;;7409750;19;19951;-79
2024/03/19 01:31:49;;;;;;;8.63;4.82;;;;;;;;;;7408346;19;20270;-79
2024/03/19 01:34:38;;;;;;;8.95;5.13;;;;;;;;;;7406680;19;19948;-79
2024/03/19 01:37:22;;;;;;;9.18;5.07;;;;;;;;;;7406591;19;19918;-79
2024/03/19 01:40:08;;;;;;;8.23;4.40;;;;;;;;;;7410892;19;19919;-79
2024/03/19 01:42:55;;;;;;;8.68;4.97;;;;;;;;;;7410950;19;19911;-79
2024/03/19 01:45:42;;;;;;;11.35;5.68;;;;;;;;;;7410508;19;19993;-79
2024/03/19 01:48:34;;;;;;;10.82;4.80;;;;;;;;;;7410449;19;19931;-79
2024/03/19 01:51:23;;;;;;;11.18;5.57;;;;;;;;;;7407842;19;19907;-79
2024/03/19 01:54:09;;;;;;;8.60;4.22;;;;;;;;;;7411218;19;19931;-79
2024/03/19 01:56:54;;;;;;;9.90;5.10;;;;;;;;;;7405167;19;20341;-79
2024/03/19 01:59:44;;;;;;;9.75;5.80;;;;;;;;;;7407632;19;19926;-79
2024/03/19 02:02:35;;;;;;;13.23;4.68;;;;;;;;;;7407985;19;19915;-79
2024/03/19 02:05:22;;;;;;;8.75;5.25;;;;;;;;;;7410195;19;20421;-79
2024/03/19 02:08:07;;;;;;;9.77;5.28;;;;;;;;;;7403021;19;20001;-79
2024/03/19 02:10:54;;;;;;;8.27;4.57;;;;;;;;;;7404157;19;19937;-79
2024/03/19 02:13:38;;;;;;;11.05;4.75;;;;;;;;;;7410879;19;19928;-79
2024/03/19 02:16:28;;;;;;;9.38;5.05;;;;;;;;;;7406775;19;19937;-79
2024/03/19 02:19:12;;;;;;;8.73;4.97;;;;;;;;;;7407282;19;19925;-79
2024/03/19 02:21:59;;;;;;;9.63;4.88;;;;;;;;;;7410755;19;19927;-79
2024/03/19 02:24:46;;;;;;;10.23;5.28;;;;;;;;;;7408703;19;19930;-79
2024/03/19 02:27:33;;;;;;;9.00;5.13;;;;;;;;;;7404330;19;20417;-79
2024/03/19 02:30:19;;;;;;;7.70;4.53;;;;;;;;;;7401121;19;20263;-79
2024/03/19 02:33:07;;;;;;;9.95;5.43;;;;;;;;;;7409367;19;19915;-79
2024/03/19 02:35:51;;;;;;;7.75;4.72;;;;;;;;;;7406311;19;19918;-79
2024/03/19 02:38:41;;;;;;;10.50;5.22;;;;;;;;;;7404242;19;19918;-79
2024/03/19 02:41:27;;;;;;;8.57;5.47;;;;;;;;;;7407725;19;20410;-79
2024/03/19 02:44:14;;;;;;;14.95;6.75;;;;;;;;;;7406146;19;19919;-79
2024/03/19 02:46:58;;;;;;;11.60;6.40;;;;;;;;;;7403685;19;19919;-79
2024/03/19 02:49:42;;;;;;;12.65;6.47;;;;;;;;;;7407265;19;19939;-79
2024/03/19 02:52:27;;;;;;;12.90;6.65;;;;;;;;;;7406833;19;19927;-79
2024/03/19 02:55:13;;;;;;;7.90;5.15;;;;;;;;;;7408662;19;19922;-79
2024/03/19 02:58:06;;;;;;;11.90;6.25;;;;;;;;;;7405441;19;19918;-79
2024/03/19 03:00:52;;;;;;;12.07;5.90;;;;;;;;;;7405227;19;20363;-79
2024/03/19 03:03:37;;;;;;;13.15;7.00;;;;;;;;;;7409532;19;19938;-79
2024/03/19 03:06:23;;;;;;;10.55;5.90;;;;;;;;;;7409008;19;19930;-79
2024/03/19 03:09:09;;;;;;;8.77;5.55;;;;;;;;;;7409735;19;19914;-79
2024/03/19 03:11:55;;;;;;;14.27;5.63;;;;;;;;;;7407806;19;19907;-79
2024/03/19 03:14:45;;;;;;;12.98;5.97;;;;;;;;;;7407711;19;20250;-79
2024/03/19 03:17:29;;;;;;;12.48;6.25;;;;;;;;;;7407498;19;19958;-79
2024/03/19 03:20:18;;;;;;;11.38;6.28;;;;;;;;;;7409449;19;20377;-79
2024/03/19 03:23:05;;;;;;;14.68;6.65;;;;;;;;;;7406249;19;19919;-79
2024/03/19 03:25:49;;;;;;;11.40;6.32;;;;;;;;;;7410046;19;19923;-79
2024/03/19 03:28:36;;;;;;;12.70;7.07;;;;;;;;;;7405676;19;19921;-79
2024/03/19 03:31:28;;;;;;;12.10;6.70;;;;;;;;;;7403663;19;19925;-80
2024/03/19 03:34:17;;;;;;;12.52;6.88;;;;;;;;;;7405626;19;19922;-80
2024/03/19 03:37:01;;;;;;;10.88;6.10;;;;;;;;;;7403943;19;20006;-80
2024/03/19 03:39:46;;;;;;;12.05;6.13;;;;;;;;;;7409621;19;19911;-80
2024/03/19 03:42:32;;;;;;;11.15;6.68;;;;;;;;;;7407485;19;19930;-80
2024/03/19 03:45:22;;;;;;;10.25;6.40;;;;;;;;;;7405902;19;20233;-80
2024/03/19 03:48:10;;;;;;;15.90;5.88;;;;;;;;;;7406759;19;20333;-80
2024/03/19 03:50:54;;;;;;;14.55;6.25;;;;;;;;;;7405635;19;19922;-80
2024/03/19 03:53:41;;;;;;;12.68;6.22;;;;;;;;;;7408225;19;20009;-80
2024/03/19 03:56:28;;;;;;;12.73;6.50;;;;;;;;;;7408908;19;20337;-80
2024/03/19 03:59:15;;;;;;;10.10;6.22;;;;;;;;;;7408196;19;19927;-80
2024/03/19 04:02:02;;;;;;;11.60;6.13;;;;;;;;;;7409948;19;19935;-80
2024/03/19 04:04:48;;;;;;;9.88;5.80;;;;;;;;;;7410463;19;19925;-80
2024/03/19 04:07:39;;;;;;;14.43;6.70;;;;;;;;;;7414065;19;20533;-80
2024/03/19 04:10:23;;;;;;;12.05;6.10;;;;;;;;;;7412065;19;20326;-80
2024/03/19 04:13:08;;;;;;;12.60;6.45;;;;;;;;;;7414885;19;19922;-80
2024/03/19 04:15:56;;;;;;;14.20;7.10;;;;;;;;;;7412356;19;19986;-80
2024/03/19 04:18:40;;;;;;;11.18;6.07;;;;;;;;;;7416681;19;19925;-80
2024/03/19 04:21:30;;;;;;;10.77;5.55;;;;;;;;;;7418275;19;19938;-80
2024/03/19 04:24:16;;;;;;;9.88;5.78;;;;;;;;;;7410289;19;19970;-80
2024/03/19 04:27:03;;;;;;;9.10;5.80;;;;;;;;;;7414928;19;19922;-80
2024/03/19 04:29:50;;;;;;;11.40;6.72;;;;;;;;;;7416585;19;20373;-80
2024/03/19 04:32:37;;;;;;;13.98;7.10;;;;;;;;;;7416249;19;20031;-80
2024/03/19 04:35:22;;;;;;;10.57;6.10;;;;;;;;;;7418990;19;19944;-80
2024/03/19 04:38:09;;;;;;;12.82;7.10;;;;;;;;;;7413817;19;19927;-80
2024/03/19 04:40:55;;;;;;;16.70;7.07;;;;;;;;;;7418027;19;19906;-80
2024/03/19 04:43:40;;;;;;;11.07;6.53;;;;;;;;;;7417681;19;19934;-79
2024/03/19 04:46:26;;;;;;;12.73;7.57;;;;;;;;;;7412733;19;19921;-79
2024/03/19 04:49:15;;;;;;;12.88;7.07;;;;;;;;;;7418890;19;19943;-79
2024/03/19 04:52:01;;;;;;;14.57;7.25;;;;;;;;;;7415587;19;19929;-80
2024/03/19 04:54:49;;;;;;;13.55;7.63;;;;;;;;;;7416902;19;19914;-80
2024/03/19 04:57:38;;;;;;;15.45;7.20;;;;;;;;;;7416002;19;19974;-80
2024/03/19 05:00:22;;;;;;;13.40;7.20;;;;;;;;;;7417510;19;19911;-80
2024/03/19 05:03:07;;;;;;;14.25;7.63;;;;;;;;;;7416611;19;19995;-80
2024/03/19 05:05:52;;;;;;;13.13;7.60;;;;;;;;;;7420227;19;19936;-80
2024/03/19 05:08:37;;;;;;;17.63;9.18;;;;;;;;;;7418008;19;19910;-80
2024/03/19 05:11:26;;;;;;;18.58;10.15;;;;;;;;;;7411203;19;19922;-79
2024/03/19 05:14:12;;;;;;;21.98;10.57;;;;;;;;;;7417200;19;19926;-79
2024/03/19 05:16:57;;;;;;;25.75;12.60;;;;;;;;;;7410970;19;19939;-80
2024/03/19 05:19:44;;;;;;;22.45;12.63;;;;;;;;;;7418080;19;20281;-80
2024/03/19 05:22:33;;;;;;;20.20;11.75;;;;;;;;;;7414754;19;19918;-80
2024/03/19 05:25:22;;;;;;;21.17;11.52;;;;;;;;;;7413965;19;19919;-80
2024/03/19 05:28:11;;;;;;;22.70;11.32;;;;;;;;;;7413174;19;19907;-80
2024/03/19 05:30:55;;;;;;;21.48;11.73;;;;;;;;;;7411570;19;19919;-80
2024/03/19 05:33:40;;;;;;;22.80;12.05;;;;;;;;;;7416885;19;20293;-80
2024/03/19 05:36:32;;;;;;;19.83;11.40;;;;;;;;;;7412029;19;19914;-79
2024/03/19 05:39:21;;;;;;;22.33;11.93;;;;;;;;;;7413822;19;19927;-79
2024/03/19 05:42:06;;;;;;;24.23;12.63;;;;;;;;;;7414286;19;19915;-79
2024/03/19 05:44:56;;;;;;;20.80;11.63;;;;;;;;;;7414901;19;20346;-79
2024/03/19 05:47:43;;;;;;;24.67;12.13;;;;;;;;;;7410252;19;19910;-79
2024/03/19 05:50:29;;;;;;;23.05;11.68;;;;;;;;;;7411718;19;20004;-79
2024/03/19 05:53:18;;;;;;;22.02;10.48;;;;;;;;;;7411944;19;19918;-79
2024/03/19 05:56:04;;;;;;;22.83;12.57;;;;;;;;;;7407574;19;19922;-79
2024/03/19 05:58:48;;;;;;;22.85;11.10;;;;;;;;;;7409464;19;19929;-79
2024/03/19 06:01:40;;;;;;;22.10;11.55;;;;;;;;;;7412514;19;20274;-79
2024/03/19 06:04:28;;;;;;;18.98;11.00;;;;;;;;;;7409896;19;19918;-79
2024/03/19 06:07:15;;;;;;;20.70;11.57;;;;;;;;;;7408569;19;20344;-80
2024/03/19 06:09:59;;;;;;;24.08;11.95;;;;;;;;;;7410854;19;20254;-80
2024/03/19 06:12:48;;;;;;;21.65;11.50;;;;;;;;;;7412660;19;19921;-80
2024/03/19 06:15:32;;;;;;;22.15;11.50;;;;;;;;;;7413157;19;19938;-80
2024/03/19 06:18:21;;;;;;;19.55;10.43;;;;;;;;;;7410772;19;19974;-80
2024/03/19 06:21:06;;;;;;;23.10;11.90;;;;;;;;;;7411665;19;19915;-80
2024/03/19 06:23:53;;;;;;;21.10;10.68;;;;;;;;;;7414688;19;19914;-80
2024/03/19 06:26:41;;;;;;;25.63;12.63;;;;;;;;;;7420780;19;19922;-80
2024/03/19 06:29:28;;;;;;;22.52;10.57;;;;;;;;;;7425647;19;20326;-80
2024/03/19 06:32:13;;;;;;;19.60;10.90;;;;;;;;;;7428465;19;19910;-80
2024/03/19 06:35:04;;;;;;;23.98;11.85;;;;;;;;;;7432469;19;19918;-80
2024/03/19 06:37:50;;;;;;;24.83;11.60;;;;;;;;;;7431370;19;19925;-80
2024/03/19 06:40:37;;;;;;;22.10;10.93;;;;;;;;;;7434375;19;19919;-80
2024/03/19 06:43:28;;;;;;;24.92;12.18;;;;;;;;;;7432666;19;19922;-80
2024/03/19 06:46:14;;;;;;;22.27;10.10;;;;;;;;;;7425268;19;19926;-80
2024/03/19 06:49:01;;;;;;;24.70;12.18;;;;;;;;;;7424341;19;19910;-80
2024/03/19 06:51:53;;;;;;;22.05;10.55;;;;;;;;;;7422185;19;19914;-80
2024/03/19 06:54:40;;;;;;;24.20;11.60;;;;;;;;;;7419637;19;19910;-80
2024/03/19 06:57:30;;;;;;;23.35;11.52;;;;;;;;;;7416020;19;19915;-80
2024/03/19 07:00:19;;;;;;;24.67;11.10;;;;;;;;;;7409260;19;19917;-80
2024/03/19 07:03:03;;;;;;;22.33;11.20;;;;;;;;;;7412193;19;19922;-81
2024/03/19 07:05:54;;;;;;;22.67;11.20;;;;;;;;;;7415893;19;20346;-81
2024/03/19 07:08:47;;;;;;;25.80;11.82;;;;;;;;;;7411299;19;19922;-81
2024/03/19 07:11:31;;;;;;;25.85;12.27;;;;;;;;;;7414894;19;19923;-81
2024/03/19 07:14:20;;;;;;;31.83;12.77;;;;;;;;;;7417036;19;19907;-81
2024/03/19 07:17:07;;;;;;;29.42;12.30;;;;;;;;;;7412879;19;20365;-81
2024/03/19 07:19:51;;;;;;;27.08;12.48;;;;;;;;;;7415582;19;19910;-81
2024/03/19 07:22:38;;;;;;;28.50;12.40;;;;;;;;;;7414200;19;20257;-81
2024/03/19 07:25:25;;;;;;;27.40;13.40;;;;;;;;;;7413710;19;19910;-81
2024/03/19 07:28:10;;;;;;;25.25;12.70;;;;;;;;;;7409368;19;20268;-81
2024/03/19 07:30:57;;;;;;;27.58;11.93;;;;;;;;;;7412618;19;19915;-81
2024/03/19 07:33:44;;;;;;;29.38;13.48;;;;;;;;;;7409943;19;19915;-81
2024/03/19 07:36:29;;;;;;;24.17;11.25;;;;;;;;;;7412312;19;19919;-81
2024/03/19 07:39:15;;;;;;;24.30;10.82;;;;;;;;;;7412539;19;19914;-80
2024/03/19 07:42:03;;;;;;;27.15;10.43;;;;;;;;;;7413431;19;19925;-80
2024/03/19 07:44:47;;;;;;;25.67;10.80;;;;;;;;;;7412643;19;19930;-80
2024/03/19 07:47:32;;;;;;;26.70;11.55;;;;;;;;;;7413965;19;19953;-80
2024/03/19 07:50:18;;;;;;;19.40;10.13;;;;;;;;;;7412242;19;19911;-79
2024/03/19 07:53:05;;;;;;;21.77;9.35;;;;;;;;;;7413114;19;19918;-79
2024/03/19 07:55:51;;;;;;;23.33;9.85;;;;;;;;;;7409895;19;19970;-80
2024/03/19 07:58:38;;;;;;;24.10;9.43;;;;;;;;;;7395757;19;20002;-80
2024/03/19 08:01:25;;;;;;;21.73;10.00;;;;;;;;;;7408192;19;19918;-80
2024/03/19 08:04:11;;;;;;;23.00;9.48;;;;;;;;;;7409712;19;20326;-80
2024/03/19 08:06:58;;;;;;;20.20;9.38;;;;;;;;;;7408036;19;19923;-80
2024/03/19 08:09:42;;;;;;;26.02;10.93;;;;;;;;;;7408927;19;20302;-80
2024/03/19 08:12:26;;;;;;;27.67;9.63;;;;;;;;;;7408005;19;19915;-80
2024/03/19 08:15:13;;;;;;;25.63;9.90;;;;;;;;;;7409616;19;19917;-80
2024/03/19 08:18:00;;;;;;;27.17;9.88;;;;;;;;;;7409225;19;19918;-80
2024/03/19 08:20:48;;;;;;;20.48;8.52;;;;;;;;;;7409588;19;19927;-80
2024/03/19 08:23:35;;;;;;;19.92;8.63;;;;;;;;;;7409307;19;20345;-79
2024/03/19 08:26:20;;;;;;;23.67;10.00;;;;;;;;;;7407761;19;19933;-79
2024/03/19 08:29:08;;;;;;;28.38;10.48;;;;;;;;;;7409077;19;19918;-79
2024/03/19 08:31:55;;;;;;;23.92;10.05;;;;;;;;;;7407719;19;20001;-79
2024/03/19 08:34:41;;;;;;;26.98;11.05;;;;;;;;;;7407610;19;19915;-79
2024/03/19 08:37:28;;;;;;;25.65;9.38;;;;;;;;;;7409473;19;19911;-79
2024/03/19 08:40:15;;;;;;;24.30;10.15;;;;;;;;;;7410122;19;19910;-79
2024/03/19 08:42:59;;;;;;;25.60;9.50;;;;;;;;;;7409788;19;19945;-80
2024/03/19 08:45:43;;;;;;;21.70;9.85;;;;;;;;;;7414235;19;19923;-80
2024/03/19 08:48:35;;;;;;;20.52;9.25;;;;;;;;;;7417276;19;19914;-80
2024/03/19 08:51:19;;;;;;;22.40;9.05;;;;;;;;;;7417313;19;19907;-80
2024/03/19 08:54:04;;;;;;;24.25;9.85;;;;;;;;;;7416134;19;19919;-79
2024/03/19 08:56:54;;;;;;;23.05;10.05;;;;;;;;;;7416248;19;19922;-80
2024/03/19 08:59:38;;;;;;;17.42;9.15;;;;;;;;;;7415668;19;19922;-79
2024/03/19 09:02:22;;;;;;;21.10;9.27;;;;;;;;;;7415012;19;19934;-79
2024/03/19 09:05:10;;;;;;;22.75;9.48;;;;;;;;;;7414369;19;19996;-79
2024/03/19 09:07:56;;;;;;;23.85;10.25;;;;;;;;;;7409883;19;20356;-79
2024/03/19 09:10:43;;;;;;;20.15;9.63;;;;;;;;;;7413066;19;19939;-79
2024/03/19 09:13:28;;;;;;;21.33;9.68;;;;;;;;;;7409817;19;19925;-79
2024/03/19 09:16:13;;;;;;;19.30;9.23;;;;;;;;;;7414350;19;19923;-79
2024/03/19 09:19:00;;;;;;;20.23;8.30;;;;;;;;;;7412684;19;19934;-79
2024/03/19 09:21:49;;;;;;;21.00;9.30;;;;;;;;;;7412990;19;19907;-80
2024/03/19 09:24:36;;;;;;;21.40;9.05;;;;;;;;;;7415260;19;19974;-79
2024/03/19 09:27:22;;;;;;;19.23;7.70;;;;;;;;;;7412694;19;19915;-79
2024/03/19 09:30:12;;;;;;;22.65;9.07;;;;;;;;;;7412677;19;20265;-79
2024/03/19 09:32:57;;;;;;;16.17;7.93;;;;;;;;;;7408867;19;19918;-79
2024/03/19 09:35:45;;;;;;;19.55;8.27;;;;;;;;;;7412209;19;20326;-79
2024/03/19 09:38:34;;;;;;;18.92;9.10;;;;;;;;;;7410782;19;20270;-79
2024/03/19 09:41:23;;;;;;;16.80;7.93;;;;;;;;;;7410788;19;19950;-79
2024/03/19 09:44:17;;;;;;;20.80;8.68;;;;;;;;;;7412600;19;19960;-79
2024/03/19 09:47:04;;;;;;;15.63;6.68;;;;;;;;;;7412014;19;19918;-79
2024/03/19 09:49:48;;;;;;;12.65;6.80;;;;;;;;;;7413136;19;19927;-79
2024/03/19 09:52:33;;;;;;;13.68;6.60;;;;;;;;;;7410479;19;19977;-79
2024/03/19 09:55:26;;;;;;;14.73;6.32;;;;;;;;;;7409463;19;19922;-79
2024/03/19 09:58:12;;;;;;;18.10;7.90;;;;;;;;;;7408673;19;20254;-79
2024/03/19 10:01:00;;;;;;;13.95;6.20;;;;;;;;;;7413165;19;20269;-79
2024/03/19 10:03:49;;;;;;;13.07;6.80;;;;;;;;;;7410623;19;19926;-79
2024/03/19 10:06:33;;;;;;;13.20;6.63;;;;;;;;;;7411485;19;19921;-79
2024/03/19 10:09:19;;;;;;;13.73;6.88;;;;;;;;;;7411119;19;19923;-79
2024/03/19 10:12:10;;;;;;;13.18;7.25;;;;;;;;;;7413461;19;20259;-79
2024/03/19 10:14:54;;;;;;;14.43;6.35;;;;;;;;;;7413979;19;19907;-79
2024/03/19 10:17:39;;;;;;;13.75;6.68;;;;;;;;;;7411052;19;19942;-79
2024/03/19 10:20:23;;;;;;;14.40;7.13;;;;;;;;;;7413546;19;19943;-79
2024/03/19 10:23:08;;;;;;;13.10;7.47;;;;;;;;;;7410923;19;20338;-79
2024/03/19 10:25:56;;;;;;;10.35;6.50;;;;;;;;;;7417405;19;19913;-80
2024/03/19 10:28:45;;;;;;;16.48;7.80;;;;;;;;;;7415686;19;19930;-80
2024/03/19 10:31:34;;;;;;;13.32;7.43;;;;;;;;;;7416561;19;19926;-80
2024/03/19 10:34:20;;;;;;;14.68;7.72;;;;;;;;;;7413499;19;19915;-80
2024/03/19 10:37:07;;;;;;;13.45;7.20;;;;;;;;;;7409276;19;19975;-80
2024/03/19 10:39:53;;;;;;;14.52;7.78;;;;;;;;;;7412248;19;19929;-80
2024/03/19 10:42:38;;;;;;;14.65;7.38;;;;;;;;;;7409284;19;19921;-80
2024/03/19 10:45:28;;;;;;;13.70;7.15;;;;;;;;;;7408147;19;19906;-79
2024/03/19 10:48:15;;;;;;;10.52;5.95;;;;;;;;;;7406444;19;20255;-80
2024/03/19 10:51:02;;;;;;;11.95;6.68;;;;;;;;;;7409080;19;19914;-80
2024/03/19 10:53:48;;;;;;;11.85;6.05;;;;;;;;;;7407733;19;19922;-80
2024/03/19 10:56:32;;;;;;;11.88;6.55;;;;;;;;;;7409826;19;19918;-80
2024/03/19 10:59:17;;;;;;;11.65;6.00;;;;;;;;;;7411156;19;19922;-80
2024/03/19 11:02:08;;;;;;;11.30;5.05;;;;;;;;;;7414308;19;19922;-80
2024/03/19 11:04:59;;;;;;;10.13;5.50;;;;;;;;;;7412381;19;19922;-80
2024/03/19 11:07:47;;;;;;;12.25;5.75;;;;;;;;;;7408533;19;19914;-80
2024/03/19 11:10:35;;;;;;;9.63;5.35;;;;;;;;;;7412462;19;20275;-80
2024/03/19 11:13:25;;;;;;;9.00;5.00;;;;;;;;;;7412882;19;19918;-80
2024/03/19 11:16:16;;;;;;;11.18;5.18;;;;;;;;;;7416136;19;19919;-80
2024/03/19 11:19:05;;;;;;;9.95;5.15;;;;;;;;;;7415317;19;20357;-80
2024/03/19 11:21:51;;;;;;;8.80;5.53;;;;;;;;;;7414122;19;19953;-80
2024/03/19 11:24:40;;;;;;;10.38;4.70;;;;;;;;;;7414823;19;19910;-80
2024/03/19 11:27:35;;;;;;;8.18;5.00;;;;;;;;;;7411749;19;19916;-80
2024/03/19 11:30:22;;;;;;;8.55;4.50;;;;;;;;;;7413498;19;19935;-80
2024/03/19 11:33:10;;;;;;;7.20;4.15;;;;;;;;;;7408035;19;19933;-80
2024/03/19 11:35:58;;;;;;;7.07;4.35;;;;;;;;;;7409670;19;20624;-80
2024/03/19 11:38:42;;;;;;;7.25;4.25;;;;;;;;;;7412947;19;19994;-80
2024/03/19 11:41:26;;;;;;;7.65;4.47;;;;;;;;;;7413525;19;19986;-80
2024/03/19 11:44:15;;;;;;;6.03;4.35;;;;;;;;;;7408672;19;19919;-80
2024/03/19 11:47:00;;;;;;;7.00;4.53;;;;;;;;;;7410795;19;19991;-80
2024/03/19 11:49:45;;;;;;;7.35;4.95;;;;;;;;;;7415650;19;19974;-80
2024/03/19 11:52:35;;;;;;;9.85;4.47;;;;;;;;;;7415187;19;19911;-80
2024/03/19 11:55:21;;;;;;;8.00;4.68;;;;;;;;;;7413648;19;19914;-81
2024/03/19 11:58:10;;;;;;;6.43;4.38;;;;;;;;;;7429421;19;19906;-80
2024/03/19 12:00:55;;;;;;;7.63;4.18;;;;;;;;;;7440435;19;19907;-79
2024/03/19 12:03:44;;;;;;;6.43;3.92;;;;;;;;;;7441929;19;19939;-79
2024/03/19 12:06:28;;;;;;;6.63;4.35;;;;;;;;;;7440278;19;19914;-79
2024/03/19 12:09:16;;;;;;;6.60;4.47;;;;;;;;;;7441799;19;19919;-79
2024/03/19 12:12:03;;;;;;;7.78;4.30;;;;;;;;;;7438746;19;19915;-79
2024/03/19 12:14:50;;;;;;;6.55;4.40;;;;;;;;;;7410036;19;19925;-79
2024/03/19 12:17:37;;;;;;;6.18;3.60;;;;;;;;;;7414424;19;19915;-79
2024/03/19 12:20:23;;;;;;;6.45;3.45;;;;;;;;;;7418647;19;19922;-79
2024/03/19 12:23:08;;;;;;;7.63;3.67;;;;;;;;;;7417981;19;19918;-79
2024/03/19 12:25:58;;;;;;;5.25;2.83;;;;;;;;;;7418234;19;19918;-79
2024/03/19 12:28:44;;;;;;;7.25;3.60;;;;;;;;;;7414364;19;19922;-79
2024/03/19 12:31:36;;;;;;;5.53;3.10;;;;;;;;;;7420341;19;20336;-79
2024/03/19 12:34:37;;;;;;;7.47;4.28;;;;;;;;;;7417761;19;19926;-79
2024/03/19 12:37:24;;;;;;;5.65;3.35;;;;;;;;;;7416447;19;19918;-79
2024/03/19 12:40:10;;;;;;;7.68;3.35;;;;;;;;;;7418454;19;19954;-79
2024/03/19 12:42:59;;;;;;;6.07;3.60;;;;;;;;;;7420089;19;19917;-79
2024/03/19 12:45:45;;;;;;;6.15;3.58;;;;;;;;;;7419103;19;19957;-79
2024/03/19 12:48:30;;;;;;;6.65;3.67;;;;;;;;;;7414885;19;19922;-79
2024/03/19 12:51:19;;;;;;;5.38;3.25;;;;;;;;;;7418264;19;19958;-79
2024/03/19 12:54:05;;;;;;;5.05;3.58;;;;;;;;;;7416658;19;19914;-79
2024/03/19 12:56:54;;;;;;;8.02;3.42;;;;;;;;;;7416709;19;19922;-79
2024/03/19 12:59:42;;;;;;;7.38;3.60;;;;;;;;;;7411268;19;19918;-80
2024/03/19 13:02:27;;;;;;;4.80;3.10;;;;;;;;;;7419227;19;19983;-80
2024/03/19 13:05:15;;;;;;;5.07;3.58;;;;;;;;;;7420372;19;19911;-80
2024/03/19 13:08:03;;;;;;;8.73;3.75;;;;;;;;;;7418201;19;19982;-80
2024/03/19 13:10:50;;;;;;;7.05;3.20;;;;;;;;;;7419197;19;19917;-80
2024/03/19 13:13:36;;;;;;;4.88;2.78;;;;;;;;;;7419812;19;19915;-80
2024/03/19 13:16:25;;;;;;;5.10;2.78;;;;;;;;;;7426078;19;19918;-80
2024/03/19 13:19:12;;;;;;;7.45;3.72;;;;;;;;;;7428053;19;19918;-80
2024/03/19 13:21:59;;;;;;;4.10;2.83;;;;;;;;;;7417007;19;20366;-81
2024/03/19 13:24:43;;;;;;;6.82;3.08;;;;;;;;;;7417244;19;20007;-80
2024/03/19 13:27:31;;;;;;;5.63;2.60;;;;;;;;;;7411869;19;20294;-81
2024/03/19 13:30:18;;;;;;;4.47;2.65;;;;;;;;;;7414627;19;19914;-81
2024/03/19 13:33:05;;;;;;;4.47;2.63;;;;;;;;;;7412064;19;20357;-80
2024/03/19 13:35:49;;;;;;;6.10;2.42;;;;;;;;;;7414736;19;19929;-81
2024/03/19 13:38:33;;;;;;;4.35;2.60;;;;;;;;;;7411659;19;19956;-81
2024/03/19 13:41:19;;;;;;;3.47;2.30;;;;;;;;;;7414526;19;19978;-81
2024/03/19 13:44:06;;;;;;;5.00;2.78;;;;;;;;;;7415960;19;19921;-81
2024/03/19 13:46:50;;;;;;;4.32;2.67;;;;;;;;;;7413052;19;20292;-81
2024/03/19 13:49:39;;;;;;;5.13;2.85;;;;;;;;;;7415114;19;19914;-81
2024/03/19 13:52:26;;;;;;;3.85;2.58;;;;;;;;;;7416246;19;19910;-81
2024/03/19 13:55:11;;;;;;;3.88;2.63;;;;;;;;;;7415682;19;19956;-81
2024/03/19 13:57:57;;;;;;;6.53;2.70;;;;;;;;;;7410775;19;19914;-81
2024/03/19 14:00:42;;;;;;;4.55;2.63;;;;;;;;;;7416217;19;19945;-81
2024/03/19 14:03:31;;;;;;;5.30;2.40;;;;;;;;;;7416882;19;19919;-81
2024/03/19 14:06:20;;;;;;;3.70;2.40;;;;;;;;;;7414708;19;20278;-81
2024/03/19 14:09:05;;;;;;;5.45;2.97;;;;;;;;;;7415522;19;19974;-81
2024/03/19 14:11:52;;;;;;;4.93;2.60;;;;;;;;;;7414113;19;20385;-81
2024/03/19 14:14:41;;;;;;;5.28;2.90;;;;;;;;;;7412375;19;19923;-81
2024/03/19 14:17:27;;;;;;;4.00;2.30;;;;;;;;;;7414748;19;19925;-81
2024/03/19 14:20:15;;;;;;;4.20;2.53;;;;;;;;;;7414096;19;19978;-81
2024/03/19 14:23:01;;;;;;;4.00;2.53;;;;;;;;;;7412719;19;20003;-81
2024/03/19 14:25:46;;;;;;;6.38;2.10;;;;;;;;;;7413965;19;20380;-81
2024/03/19 14:28:30;;;;;;;4.15;2.67;;;;;;;;;;7410950;19;20335;-81
2024/03/19 14:31:17;;;;;;;3.78;1.95;;;;;;;;;;7414905;19;19915;-81
2024/03/19 14:34:01;;;;;;;2.60;1.40;;;;;;;;;;7410512;19;20345;-80
2024/03/19 14:36:50;;;;;;;4.20;2.25;;;;;;;;;;7413611;19;19919;-81
2024/03/19 14:39:39;;;;;;;4.80;1.90;;;;;;;;;;7414362;19;19915;-81
2024/03/19 14:42:25;;;;;;;3.00;2.13;;;;;;;;;;7412907;19;19910;-81
2024/03/19 14:45:12;;;;;;;3.55;2.30;;;;;;;;;;7412792;19;19923;-81
2024/03/19 14:48:01;;;;;;;4.18;2.28;;;;;;;;;;7409743;19;20338;-81
2024/03/19 14:50:46;;;;;;;4.40;1.90;;;;;;;;;;7414691;19;19918;-81
2024/03/19 14:53:32;;;;;;;2.92;1.60;;;;;;;;;;7415252;19;20265;-81
2024/03/19 14:56:19;;;;;;;3.05;2.00;;;;;;;;;;7414672;19;20001;-81
2024/03/19 14:59:06;;;;;;;4.68;1.88;;;;;;;;;;7415441;19;20348;-81
2024/03/19 15:01:52;;;;;;;3.90;2.75;;;;;;;;;;7412167;19;19919;-81
2024/03/19 15:04:39;;;;;;;3.40;2.03;;;;;;;;;;7416111;19;19920;-81
2024/03/19 15:07:26;;;;;;;2.45;1.90;;;;;;;;;;7429274;19;19943;-81
2024/03/19 15:10:13;;;;;;;3.35;2.47;;;;;;;;;;7423371;19;19925;-82
2024/03/19 15:13:00;;;;;;;4.05;2.40;;;;;;;;;;7407931;19;20329;-82
2024/03/19 15:15:46;;;;;;;3.13;2.00;;;;;;;;;;7407528;19;19935;-81
2024/03/19 15:18:33;;;;;;;4.93;2.40;;;;;;;;;;7406453;19;19930;-81
2024/03/19 15:21:17;;;;;;;3.85;1.92;;;;;;;;;;7408527;19;19982;-81
2024/03/19 15:24:05;;;;;;;4.03;1.92;;;;;;;;;;7410642;19;20310;-82
2024/03/19 15:26:51;;;;;;;3.17;1.48;;;;;;;;;;7410041;19;20419;-81
2024/03/19 15:29:40;;;;;;;3.47;1.85;;;;;;;;;;7412375;19;19915;-81
2024/03/19 15:32:27;;;;;;;4.18;2.03;;;;;;;;;;7410784;19;20029;-82
2024/03/19 15:35:12;;;;;;;2.88;1.77;;;;;;;;;;7410171;19;19930;-82
2024/03/19 15:37:56;;;;;;;2.72;1.88;;;;;;;;;;7408316;19;19918;-82
2024/03/19 15:40:43;;;;;;;3.08;1.67;;;;;;;;;;7412988;19;20302;-82
2024/03/19 15:43:29;;;;;;;2.50;1.70;;;;;;;;;;7410683;19;19922;-82
2024/03/19 15:46:16;;;;;;;3.92;1.63;;;;;;;;;;7411822;19;19926;-82
2024/03/19 15:49:03;;;;;;;3.03;1.80;;;;;;;;;;7409573;19;19919;-82
2024/03/19 15:51:52;;;;;;;3.35;1.52;;;;;;;;;;7410143;19;19919;-82
2024/03/19 15:54:41;;;;;;;2.95;1.52;;;;;;;;;;7415340;19;19915;-82
2024/03/19 15:57:25;;;;;;;2.45;1.80;;;;;;;;;;7414932;19;19940;-82
2024/03/19 16:00:17;;;;;;;3.38;1.40;;;;;;;;;;7417830;19;19922;-82
2024/03/19 16:03:08;;;;;;;4.30;2.20;;;;;;;;;;7417430;19;19918;-82
2024/03/19 16:05:55;;;;;;;3.50;1.52;;;;;;;;;;7418609;19;19906;-82
2024/03/19 16:08:42;;;;;;;3.95;1.70;;;;;;;;;;7419073;19;19992;-82
2024/03/19 16:11:26;;;;;;;3.85;1.60;;;;;;;;;;7417037;19;19923;-81
2024/03/19 16:14:13;;;;;;;2.17;1.40;;;;;;;;;;7414170;19;19927;-81
2024/03/19 16:16:57;;;;;;;2.53;1.10;;;;;;;;;;7416023;19;19911;-82
2024/03/19 16:19:50;;;;;;;5.63;1.48;;;;;;;;;;7417034;19;19934;-82
2024/03/19 16:22:36;;;;;;;1.85;1.17;;;;;;;;;;7417497;19;20266;-82
2024/03/19 16:25:23;;;;;;;3.78;1.40;;;;;;;;;;7414241;19;19914;-82
2024/03/19 16:28:12;;;;;;;2.10;1.25;;;;;;;;;;7417611;19;19915;-81